Time;durP1;ratioP1;P1;durP2;ratioP2;P2;SDS_P1;SDS_P2;PMS_P1;PMS_P2;Temp;Humidity;BMP_temperature;BMP_pressure;BME280_temperature;BME280_humidity;BME280_pressure;Samples;Min_cycle;Max_cycle;Signal;HPM_P1;HPM_P2
2023/03/26 00:01:32;;;;;;;11.30;2.83;;;;;;;6.66;100.00;100512.94;5043669;28;20357;-75
2023/03/26 00:04:00;;;;;;;18.00;4.30;;;;;;;6.66;100.00;100517.31;5037999;28;20499;-75
2023/03/26 00:06:30;;;;;;;19.13;3.83;;;;;;;6.66;100.00;100519.91;5057495;28;20045;-75
2023/03/26 00:08:58;;;;;;;18.40;4.57;;;;;;;6.66;100.00;100512.94;5016444;28;20079;-74
2023/03/26 00:11:26;;;;;;;11.25;3.20;;;;;;;6.64;100.00;100515.53;5045807;28;20063;-74
2023/03/26 00:13:56;;;;;;;10.77;3.22;;;;;;;6.64;100.00;100512.91;5051981;28;20048;-74
2023/03/26 00:16:27;;;;;;;24.30;4.10;;;;;;;6.63;100.00;100518.13;5081584;28;20052;-74
2023/03/26 00:18:56;;;;;;;;;;;;;;;6.60;100.00;100532.06;5051146;28;20650;-74
2023/03/26 00:21:26;;;;;;;16.73;3.30;;;;;;;6.61;100.00;100533.81;5060624;28;20280;-74
2023/03/26 00:23:58;;;;;;;;;;;;;;;6.60;100.00;100528.56;5016403;28;23527;-74
2023/03/26 00:26:28;;;;;;;25.52;4.10;;;;;;;6.60;100.00;100532.06;5065795;28;19927;-74
2023/03/26 00:28:57;;;;;;;23.60;3.90;;;;;;;6.61;100.00;100531.19;5062077;28;20048;-74
2023/03/26 00:31:24;;;;;;;24.40;4.90;;;;;;;6.61;100.00;100531.19;5058962;28;20364;-74
2023/03/26 00:33:55;;;;;;;14.05;3.58;;;;;;;6.60;100.00;100539.91;5042178;28;20045;-74
2023/03/26 00:36:24;;;;;;;22.52;5.13;;;;;;;6.59;100.00;100534.66;5059251;28;20040;-75
2023/03/26 00:38:52;;;;;;;19.35;4.18;;;;;;;6.59;100.00;100538.13;5001618;28;20055;-75
2023/03/26 00:41:24;;;;;;;12.77;3.58;;;;;;;6.57;100.00;100542.47;5057256;28;20518;-75
2023/03/26 00:43:56;;;;;;;20.98;4.38;;;;;;;6.57;100.00;100537.25;5071969;28;20037;-75
2023/03/26 00:46:24;;;;;;;19.00;3.60;;;;;;;6.56;100.00;100540.72;5064223;28;20083;-74
2023/03/26 00:48:52;;;;;;;27.48;4.53;;;;;;;6.52;100.00;100538.94;5050063;28;20500;-74
2023/03/26 00:51:20;;;;;;;18.45;4.43;;;;;;;6.48;100.00;100547.56;5045507;28;20040;-75
2023/03/26 00:53:49;;;;;;;16.27;3.70;;;;;;;6.44;100.00;100548.38;5021906;28;20049;-75
2023/03/26 00:56:17;;;;;;;23.80;4.00;;;;;;;6.41;100.00;100548.38;5063756;28;20044;-74
2023/03/26 00:58:46;;;;;;;20.08;4.95;;;;;;;6.39;100.00;100540.47;5064217;28;20507;-75
2023/03/26 01:01:19;;;;;;;21.90;4.43;;;;;;;6.37;100.00;100544.81;5064130;28;20044;-75
2023/03/26 01:03:47;;;;;;;21.85;3.60;;;;;;;6.34;100.00;100541.25;5064153;28;20059;-74
2023/03/26 01:06:36;;;;;;;17.42;2.90;;;;;;;6.29;100.00;100540.31;5045827;28;20033;-75
2023/03/26 01:09:15;;;;;;;21.23;3.35;;;;;;;6.25;100.00;100542.84;5014173;28;20052;-75
2023/03/26 01:11:43;;;;;;;20.15;3.30;;;;;;;6.22;100.00;100545.44;5048223;28;20471;-75
2023/03/26 01:14:15;;;;;;;24.83;3.80;;;;;;;6.16;100.00;100540.13;5062457;28;20056;-75
2023/03/26 01:16:53;;;;;;;15.73;3.33;;;;;;;6.13;100.00;100547.91;5059656;28;20052;-75
2023/03/26 01:19:38;;;;;;;20.02;3.28;;;;;;;6.12;100.00;100551.38;5048873;28;20056;-75
2023/03/26 01:22:11;;;;;;;25.80;3.50;;;;;;;6.13;100.00;100552.28;5040931;28;20049;-75
2023/03/26 01:24:40;;;;;;;19.48;3.30;;;;;;;6.10;100.00;100547.84;5036998;28;20044;-75
2023/03/26 01:27:24;;;;;;;20.80;3.53;;;;;;;6.11;100.00;100556.59;5063894;28;20076;-74
2023/03/26 01:29:54;;;;;;;20.85;3.55;;;;;;;6.11;100.00;100554.84;5045827;28;20052;-75
2023/03/26 01:32:33;;;;;;;18.92;3.75;;;;;;;6.09;100.00;100558.28;5051420;28;20049;-75
2023/03/26 01:35:05;;;;;;;18.88;4.53;;;;;;;6.11;100.00;100553.97;5050852;28;20056;-75
2023/03/26 01:37:52;;;;;;;14.88;3.33;;;;;;;6.11;100.00;100552.25;5054460;28;20056;-75
2023/03/26 01:40:42;;;;;;;16.20;3.78;;;;;;;6.08;100.00;100560.03;5023564;28;20055;-75
2023/03/26 01:43:25;;;;;;;15.05;3.33;;;;;;;6.08;100.00;100554.78;5084720;28;20048;-75
2023/03/26 01:45:53;;;;;;;21.00;4.90;;;;;;;6.07;100.00;100557.38;5060362;28;20044;-75
2023/03/26 01:48:29;;;;;;;17.60;3.85;;;;;;;6.05;100.00;100554.75;5062943;28;20044;-75
2023/03/26 01:50:57;;;;;;;16.17;3.90;;;;;;;6.03;100.00;100554.72;5049565;28;20045;-75
2023/03/26 01:53:25;;;;;;;16.17;3.00;;;;;;;6.03;100.00;100559.06;5070244;28;20048;-75
2023/03/26 01:56:32;;;;;;;15.75;2.83;;;;;;;6.03;100.00;100556.44;5021821;28;20083;-75
2023/03/26 01:59:34;;;;;;;16.67;3.47;;;;;;;6.02;100.00;100542.50;5060026;28;20052;-75
2023/03/26 02:02:12;;;;;;;15.18;3.38;;;;;;;6.01;100.00;100550.31;5058335;28;20636;-73
2023/03/26 02:04:52;;;;;;;19.65;3.58;;;;;;;5.98;100.00;100545.03;5053846;28;20082;-75
2023/03/26 02:07:22;;;;;;;16.80;3.45;;;;;;;5.95;100.00;100540.63;5067836;28;20051;-75
2023/03/26 02:10:04;;;;;;;19.13;3.33;;;;;;;5.92;100.00;100547.53;5054762;28;20044;-78
2023/03/26 02:12:32;;;;;;;17.98;3.03;;;;;;;5.88;100.00;100543.06;5007051;28;20052;-78
2023/03/26 02:15:00;;;;;;;14.23;2.63;;;;;;;5.81;100.00;100536.88;5066645;28;20037;-78
2023/03/26 02:17:31;;;;;;;12.23;3.15;;;;;;;5.77;100.00;100542.91;5065999;28;20044;-77
2023/03/26 02:20:04;;;;;;;10.93;3.08;;;;;;;5.72;100.00;100534.97;5046099;28;20049;-77
2023/03/26 02:22:39;;;;;;;18.88;2.67;;;;;;;5.68;100.00;100533.16;5047749;28;20060;-77
2023/03/26 02:25:12;;;;;;;14.57;3.80;;;;;;;5.63;100.00;100529.56;5056411;28;20057;-77
2023/03/26 02:27:40;;;;;;;13.60;2.60;;;;;;;5.59;100.00;100527.75;4998444;28;20045;-77
2023/03/26 02:30:14;;;;;;;20.92;3.13;;;;;;;5.58;100.00;100526.88;5034806;28;20558;-77
2023/03/26 02:32:43;;;;;;;17.73;4.65;;;;;;;5.58;100.00;100528.63;5045975;28;20416;-77
2023/03/26 02:35:11;;;;;;;13.68;2.88;;;;;;;5.57;100.00;100519.88;5038123;28;20053;-77
2023/03/26 02:37:40;;;;;;;11.05;3.42;;;;;;;5.59;100.00;100519.91;5061821;28;20063;-78
2023/03/26 02:40:16;;;;;;;10.95;3.35;;;;;;;5.57;100.00;100519.00;5075701;28;20056;-78
2023/03/26 02:42:46;;;;;;;26.33;4.60;;;;;;;5.55;100.00;100510.25;5023703;28;20051;-77
2023/03/26 02:45:14;;;;;;;14.70;3.40;;;;;;;5.54;100.00;100522.47;5069807;28;20051;-78
2023/03/26 02:47:49;;;;;;;14.68;2.92;;;;;;;5.51;100.00;100513.69;5065924;28;20055;-78
2023/03/26 02:50:44;;;;;;;14.07;3.20;;;;;;;5.49;100.00;100511.03;5047332;28;20507;-77
2023/03/26 02:53:36;;;;;;;9.07;2.60;;;;;;;5.46;100.00;100511.88;5033995;28;20072;-77
2023/03/26 02:56:29;;;;;;;13.40;2.80;;;;;;;5.43;100.00;100513.53;5044663;28;20412;-77
2023/03/26 02:59:10;;;;;;;12.10;2.50;;;;;;;5.39;100.00;100504.75;5007515;28;20055;-77
2023/03/26 03:01:41;;;;;;;18.92;3.33;;;;;;;5.38;100.00;100508.19;5053777;28;20045;-77
2023/03/26 03:04:12;;;;;;;11.13;3.45;;;;;;;5.40;100.00;100505.63;5048604;28;20044;-77
2023/03/26 03:06:40;;;;;;;17.52;3.70;;;;;;;5.40;100.00;100496.03;5051893;28;20053;-78
2023/03/26 03:09:07;;;;;;;14.90;3.08;;;;;;;5.42;100.00;100501.31;5069686;28;20048;-77
2023/03/26 03:11:35;;;;;;;20.55;4.30;;;;;;;5.45;100.00;100493.53;5062364;28;20057;-78
2023/03/26 03:14:07;;;;;;;13.70;2.85;;;;;;;5.45;100.00;100496.16;5014455;28;20044;-77
2023/03/26 03:16:35;;;;;;;22.15;3.40;;;;;;;5.46;100.00;100501.41;5062361;28;20057;-78
2023/03/26 03:19:05;;;;;;;15.30;3.03;;;;;;;5.49;100.00;100504.94;5038627;28;20056;-77
2023/03/26 03:21:40;;;;;;;15.20;3.08;;;;;;;5.51;100.00;100504.09;5066211;28;20063;-77
2023/03/26 03:24:10;;;;;;;16.20;3.28;;;;;;;5.50;100.00;100498.84;5065700;28;20044;-77
2023/03/26 03:26:45;;;;;;;24.00;5.10;;;;;;;5.50;100.00;100497.13;5054048;28;20050;-77
2023/03/26 03:29:22;;;;;;;10.40;2.90;;;;;;;5.51;100.00;100511.94;4980611;28;20040;-77
2023/03/26 03:31:50;;;;;;;16.70;3.28;;;;;;;5.51;100.00;100492.75;5045704;28;20533;-77
2023/03/26 03:34:37;;;;;;;15.95;3.00;;;;;;;5.53;100.00;100496.28;5031108;28;20052;-77
2023/03/26 03:37:07;;;;;;;11.63;3.90;;;;;;;5.54;100.00;100503.25;5065470;28;20462;-77
2023/03/26 03:39:44;;;;;;;16.63;4.22;;;;;;;5.56;100.00;100502.44;5041340;28;20049;-77
2023/03/26 03:42:15;;;;;;;14.40;3.40;;;;;;;5.56;100.00;100496.34;5052269;28;20053;-77
2023/03/26 03:44:43;;;;;;;16.00;3.13;;;;;;;5.57;100.00;100498.09;5023675;28;20037;-77
2023/03/26 03:47:30;;;;;;;42.55;5.25;;;;;;;5.59;100.00;100499.00;5066361;28;20052;-77
2023/03/26 03:49:59;;;;;;;15.88;2.85;;;;;;;5.59;100.00;100499.88;5066593;28;20056;-78
2023/03/26 03:52:30;;;;;;;24.27;3.58;;;;;;;5.59;100.00;100492.03;5045230;28;20064;-78
2023/03/26 03:54:59;;;;;;;19.33;3.83;;;;;;;5.61;100.00;100500.81;5056137;28;20038;-78
2023/03/26 03:57:44;;;;;;;20.63;3.15;;;;;;;5.63;100.00;100496.50;5051199;28;20060;-78
2023/03/26 04:00:18;;;;;;;14.95;3.53;;;;;;;5.66;100.00;100498.25;5013943;28;20052;-77
2023/03/26 04:02:57;;;;;;;22.13;3.22;;;;;;;5.66;100.00;100493.03;5047351;28;20066;-78
2023/03/26 04:05:27;;;;;;;18.42;2.65;;;;;;;5.65;100.00;100492.16;5075214;28;20510;-78
2023/03/26 04:07:55;;;;;;;18.83;3.67;;;;;;;5.66;100.00;100493.03;5048847;28;20053;-78
2023/03/26 04:10:22;;;;;;;20.17;3.92;;;;;;;5.65;100.00;100496.50;5069469;28;20053;-78
2023/03/26 04:13:12;;;;;;;15.45;3.17;;;;;;;5.66;100.00;100498.25;5057050;28;20244;-78
2023/03/26 04:16:06;;;;;;;15.93;3.17;;;;;;;5.68;100.00;100486.09;5000341;28;20048;-78
2023/03/26 04:18:36;;;;;;;19.88;2.75;;;;;;;5.68;100.00;100490.44;5065408;28;20052;-78
2023/03/26 04:21:11;;;;;;;21.92;3.55;;;;;;;5.69;100.00;100497.41;5076183;28;20056;-78
2023/03/26 04:23:39;;;;;;;15.27;3.42;;;;;;;5.68;100.00;100491.31;5045498;28;20052;-79
2023/03/26 04:26:19;;;;;;;15.93;3.53;;;;;;;5.69;100.00;100493.09;5052303;28;20068;-77
2023/03/26 04:29:05;;;;;;;12.60;2.72;;;;;;;5.71;100.00;100499.22;5047095;28;20048;-78
2023/03/26 04:31:35;;;;;;;15.57;3.15;;;;;;;5.70;100.00;100502.69;5005459;28;20055;-76
2023/03/26 04:34:13;;;;;;;18.73;3.78;;;;;;;5.72;100.00;100487.03;5046489;28;20044;-77
2023/03/26 04:37:04;;;;;;;20.02;4.03;;;;;;;5.72;100.00;100492.25;5063564;28;20067;-78
2023/03/26 04:39:37;;;;;;;17.92;3.17;;;;;;;5.72;100.00;100497.50;5046273;28;20059;-78
2023/03/26 04:42:32;;;;;;;18.88;3.70;;;;;;;5.72;100.00;100487.03;5042607;28;20056;-77
2023/03/26 04:45:11;;;;;;;15.30;3.42;;;;;;;5.72;100.00;100497.50;5074702;28;20053;-78
2023/03/26 04:47:41;;;;;;;;;;;;;;;5.70;100.00;100505.31;5005441;28;20048;-78
2023/03/26 04:50:10;;;;;;;20.70;3.42;;;;;;;5.67;100.00;100494.78;5075350;28;19920;-78
2023/03/26 04:52:39;;;;;;;13.93;3.00;;;;;;;5.65;100.00;100492.16;5062508;28;20063;-79
2023/03/26 04:55:30;;;;;;;17.67;3.33;;;;;;;5.66;100.00;100498.25;5065310;28;20075;-77
2023/03/26 04:58:05;;;;;;;16.42;3.70;;;;;;;5.63;100.00;100496.50;5050028;28;20060;-77
2023/03/26 05:00:50;;;;;;;15.82;3.83;;;;;;;5.62;100.00;100493.84;5048453;28;20462;-78
2023/03/26 05:03:19;;;;;;;16.02;2.65;;;;;;;5.62;100.00;100491.22;4932981;28;20053;-78
2023/03/26 05:05:48;;;;;;;12.35;3.55;;;;;;;5.62;100.00;100491.22;5045569;28;20060;-79
2023/03/26 05:08:16;;;;;;;11.55;3.42;;;;;;;5.62;100.00;100491.22;5039129;28;20063;-78
2023/03/26 05:10:43;;;;;;;23.10;3.08;;;;;;;5.62;100.00;100491.22;5045429;28;20053;-78
2023/03/26 05:13:15;;;;;;;13.15;3.13;;;;;;;5.62;100.00;100499.94;5033040;28;20064;-78
2023/03/26 05:15:47;;;;;;;20.27;3.70;;;;;;;5.64;100.00;100489.50;5066040;28;20392;-78
2023/03/26 05:18:25;;;;;;;16.20;3.55;;;;;;;5.64;100.00;100495.63;4996505;28;20052;-77
2023/03/26 05:20:54;;;;;;;29.25;4.85;;;;;;;5.65;100.00;100493.88;5064263;28;20056;-78
2023/03/26 05:23:22;;;;;;;13.55;2.85;;;;;;;5.65;100.00;100501.72;5041050;28;20041;-78
2023/03/26 05:26:06;;;;;;;18.15;3.08;;;;;;;5.64;100.00;100492.13;5062368;28;20102;-78
2023/03/26 05:28:35;;;;;;;12.87;2.97;;;;;;;5.64;100.00;100494.75;5016100;28;20055;-78
2023/03/26 05:31:11;;;;;;;26.90;3.72;;;;;;;5.64;100.00;100484.28;5049752;28;20301;-78
2023/03/26 05:33:45;;;;;;;14.50;3.15;;;;;;;5.64;100.00;100479.94;5021010;28;20518;-77
2023/03/26 05:36:14;;;;;;;10.50;3.28;;;;;;;5.66;100.00;100498.25;5029385;28;20499;-77
2023/03/26 05:38:49;;;;;;;20.75;3.63;;;;;;;5.67;100.00;100497.38;5048454;28;20052;-77
2023/03/26 05:41:36;;;;;;;15.80;2.85;;;;;;;5.68;100.00;100493.94;5046422;28;20056;-77
2023/03/26 05:44:05;;;;;;;18.02;4.18;;;;;;;5.69;100.00;100497.41;5052361;28;20056;-77
2023/03/26 05:46:32;;;;;;;23.00;3.70;;;;;;;5.68;100.00;100496.56;5054863;28;20047;-77
2023/03/26 05:49:02;;;;;;;15.50;3.40;;;;;;;5.70;100.00;100494.84;5006764;28;20056;-77
2023/03/26 05:51:33;;;;;;;10.90;2.67;;;;;;;5.72;100.00;100487.91;5034708;28;20139;-77
2023/03/26 05:54:32;;;;;;;11.45;2.92;;;;;;;5.72;100.00;100493.13;5034271;28;20049;-77
2023/03/26 05:57:21;;;;;;;20.85;4.03;;;;;;;5.71;100.00;100491.38;5064224;28;20079;-77
2023/03/26 06:00:23;;;;;;;27.05;3.33;;;;;;;5.72;100.00;100489.66;5045179;28;20048;-77
2023/03/26 06:02:56;;;;;;;19.92;3.20;;;;;;;5.74;100.00;100487.94;5050646;28;20056;-78
2023/03/26 06:05:31;;;;;;;16.05;3.17;;;;;;;5.74;100.00;100486.19;5000030;28;20058;-77
2023/03/26 06:08:20;;;;;;;19.83;2.92;;;;;;;5.79;100.00;100488.91;5077401;28;20036;-77
2023/03/26 06:10:56;;;;;;;12.70;3.55;;;;;;;5.81;100.00;100487.19;5037830;28;20531;-78
2023/03/26 06:13:24;;;;;;;16.33;3.83;;;;;;;5.82;100.00;100478.47;5033322;28;20059;-77
2023/03/26 06:15:51;;;;;;;13.23;2.95;;;;;;;5.84;100.00;100485.50;5053132;28;20059;-77
2023/03/26 06:18:26;;;;;;;21.08;4.15;;;;;;;5.86;100.00;100475.94;5005642;28;20070;-77
2023/03/26 06:21:12;;;;;;;11.68;2.95;;;;;;;5.90;100.00;100473.38;5063244;28;20352;-77
2023/03/26 06:23:47;;;;;;;14.75;2.83;;;;;;;5.88;100.00;100468.13;5061052;28;20155;-79
2023/03/26 06:26:51;;;;;;;15.90;2.85;;;;;;;5.90;100.00;100471.66;5022424;28;20053;-77
2023/03/26 06:29:34;;;;;;;26.58;3.88;;;;;;;5.96;100.00;100473.53;5057196;28;20063;-77
2023/03/26 06:32:04;;;;;;;15.80;3.50;;;;;;;5.98;100.00;100475.28;5046303;28;20067;-79
2023/03/26 06:34:55;;;;;;;12.80;3.92;;;;;;;6.00;100.00;100464.88;5003992;28;20060;-79
2023/03/26 06:37:23;;;;;;;15.60;2.75;;;;;;;6.02;100.00;100471.88;5049221;28;20044;-79
2023/03/26 06:39:56;;;;;;;17.27;3.17;;;;;;;6.05;100.00;100471.94;5032270;28;20063;-78
2023/03/26 06:42:43;;;;;;;18.80;3.33;;;;;;;6.11;100.00;100480.75;5061288;28;20064;-78
2023/03/26 06:45:50;;;;;;;14.25;2.88;;;;;;;6.15;100.00;100486.03;5052674;28;20048;-78
2023/03/26 06:48:33;;;;;;;16.15;2.90;;;;;;;6.19;100.00;100487.81;5057519;28;20057;-78
2023/03/26 06:51:13;;;;;;;12.48;2.17;;;;;;;6.21;100.00;100486.09;5022771;28;20052;-78
2023/03/26 06:53:58;;;;;;;14.93;2.88;;;;;;;6.27;100.00;100489.69;5061328;28;20063;-78
2023/03/26 06:56:44;;;;;;;15.90;2.65;;;;;;;6.31;100.00;100484.50;5062842;28;20052;-78
2023/03/26 06:59:32;;;;;;;12.02;2.50;;;;;;;6.40;100.00;100482.03;5043601;28;20052;-78
2023/03/26 07:02:18;;;;;;;17.27;3.53;;;;;;;6.44;100.00;100477.72;5023034;28;20190;-78
2023/03/26 07:05:20;;;;;;;14.05;3.55;;;;;;;6.44;100.00;100478.59;4950073;28;20050;-78
2023/03/26 07:08:07;;;;;;;17.92;3.03;;;;;;;6.47;100.00;100490.00;5056411;28;20060;-77
2023/03/26 07:10:53;;;;;;;11.55;2.95;;;;;;;6.49;100.00;100483.03;5053392;28;20079;-78
2023/03/26 07:13:47;;;;;;;16.33;3.17;;;;;;;6.43;100.00;100479.47;5036184;28;20065;-78
2023/03/26 07:16:32;;;;;;;15.05;3.22;;;;;;;6.41;100.00;100485.53;5062513;28;20051;-77
2023/03/26 07:19:13;;;;;;;14.68;3.75;;;;;;;6.41;100.00;100478.56;5031238;28;20533;-78
2023/03/26 07:21:41;;;;;;;16.35;3.15;;;;;;;6.42;100.00;100482.06;5021393;28;20060;-77
2023/03/26 07:24:28;;;;;;;12.23;3.30;;;;;;;6.44;100.00;100483.81;5063283;28;20056;-78
2023/03/26 07:27:45;;;;;;;13.32;3.05;;;;;;;6.50;100.00;100482.16;5040504;28;20049;-78
2023/03/26 07:30:30;;;;;;;18.00;3.15;;;;;;;6.54;100.00;100484.84;5062849;28;20879;-79
2023/03/26 07:33:44;;;;;;;11.38;2.50;;;;;;;6.61;100.00;100489.28;5047385;28;20068;-78
2023/03/26 07:36:51;;;;;;;14.93;2.92;;;;;;;6.62;100.00;100483.22;5024889;28;20071;-78
2023/03/26 07:39:59;;;;;;;14.75;3.15;;;;;;;6.63;100.00;100484.09;5056982;28;20411;-78
2023/03/26 07:43:02;;;;;;;14.80;2.65;;;;;;;6.68;100.00;100477.19;5047757;28;20064;-78
2023/03/26 07:45:53;;;;;;;10.88;3.05;;;;;;;6.79;100.00;100483.44;5047557;28;20568;-78
2023/03/26 07:48:40;;;;;;;18.90;2.72;;;;;;;6.94;100.00;100472.28;5038562;28;20059;-78
2023/03/26 07:51:27;;;;;;;12.50;3.08;;;;;;;7.08;100.00;100474.16;5020691;28;20855;-78
2023/03/26 07:54:14;;;;;;;18.60;3.70;;;;;;;7.07;100.00;100468.06;5066085;28;20521;-78
2023/03/26 07:57:05;;;;;;;11.52;2.67;;;;;;;7.01;100.00;100474.09;5058006;28;20072;-77
2023/03/26 08:00:11;;;;;;;15.00;3.03;;;;;;;6.98;100.00;100470.56;5043063;28;20049;-78
2023/03/26 08:02:50;;;;;;;13.23;3.03;;;;;;;7.01;100.00;100468.88;5054045;28;20075;-79
2023/03/26 08:05:59;;;;;;;18.40;3.47;;;;;;;6.98;100.00;100465.34;5030895;28;20161;-79
2023/03/26 08:09:10;;;;;;;10.43;2.38;;;;;;;6.97;100.00;100471.41;5011543;28;20064;-78
2023/03/26 08:12:22;;;;;;;13.88;2.78;;;;;;;6.93;100.00;100478.34;5028275;28;20535;-79
2023/03/26 08:15:20;;;;;;;16.30;3.17;;;;;;;6.90;100.00;100480.97;5010711;28;20056;-78
2023/03/26 08:18:05;;;;;;;16.42;3.05;;;;;;;6.87;100.00;100475.66;5063851;28;20479;-78
2023/03/26 08:20:46;;;;;;;11.88;3.03;;;;;;;6.90;100.00;100464.34;5049280;28;20052;-78
2023/03/26 08:23:37;;;;;;;17.10;3.55;;;;;;;6.89;100.00;100468.72;5025745;28;20056;-77
2023/03/26 08:26:26;;;;;;;15.40;2.83;;;;;;;6.89;100.00;100483.56;5052637;28;22286;-77
2023/03/26 08:28:54;;;;;;;11.80;2.97;;;;;;;6.89;100.00;100479.19;5027514;28;20045;-77
2023/03/26 08:31:34;;;;;;;17.58;2.70;;;;;;;6.92;100.00;100480.94;5060870;28;20269;-78
2023/03/26 08:34:02;;;;;;;;;;;;;;;6.93;100.00;100478.34;5063303;28;20063;-76
2023/03/26 08:36:29;;;;;;;14.07;3.30;;;;;;;6.95;100.00;100481.88;5052749;28;19927;-78
2023/03/26 08:38:58;;;;;;;18.35;2.63;;;;;;;6.97;100.00;100480.16;5033752;28;20049;-79
2023/03/26 08:41:59;;;;;;;15.77;3.30;;;;;;;7.01;100.00;100481.97;5028586;28;20052;-77
2023/03/26 08:45:05;;;;;;;12.38;2.88;;;;;;;7.05;100.00;100480.28;5049042;28;20029;-77
2023/03/26 08:48:28;;;;;;;17.23;2.78;;;;;;;7.14;100.00;100479.47;5043293;28;20044;-78
2023/03/26 08:51:17;;;;;;;13.93;3.47;;;;;;;7.17;100.00;100485.63;5051151;28;20044;-79
2023/03/26 08:53:59;;;;;;;9.98;2.42;;;;;;;7.24;100.00;100481.34;5010783;28;20063;-77
2023/03/26 08:57:20;;;;;;;10.80;3.38;;;;;;;7.29;100.00;100478.75;5062233;28;20037;-79
2023/03/26 09:00:18;;;;;;;17.95;3.30;;;;;;;7.37;100.00;100477.09;4966286;28;20476;-79
2023/03/26 09:03:16;;;;;;;13.15;2.70;;;;;;;7.50;100.00;100483.34;5047642;28;20055;-78
2023/03/26 09:05:57;;;;;;;10.30;2.90;;;;;;;7.63;100.00;100479.09;5059886;28;20052;-78
2023/03/26 09:09:08;;;;;;;12.60;2.42;;;;;;;7.61;100.00;100484.31;4996820;28;20060;-78
2023/03/26 09:12:13;;;;;;;8.95;2.45;;;;;;;7.61;100.00;100486.94;5068387;28;20041;-78
2023/03/26 09:15:22;;;;;;;12.32;2.53;;;;;;;7.66;100.00;100492.25;5045668;28;20041;-77
2023/03/26 09:18:40;;;;;;;15.38;3.20;;;;;;;7.66;100.00;100493.13;5043241;28;20087;-78
2023/03/26 09:21:36;;;;;;;11.38;2.47;;;;;;;7.68;100.00;100496.63;5043663;28;20428;-77
2023/03/26 09:24:37;;;;;;;13.70;3.33;;;;;;;7.71;100.00;100499.31;4987990;28;20048;-77
2023/03/26 09:27:36;;;;;;;14.20;2.75;;;;;;;7.74;100.00;100496.69;5061715;28;20044;-78
2023/03/26 09:30:30;;;;;;;10.95;2.38;;;;;;;7.76;100.00;100491.47;5053965;28;20079;-78
2023/03/26 09:33:26;;;;;;;12.73;2.45;;;;;;;7.76;100.00;100489.72;5053451;28;20051;-77
2023/03/26 09:36:31;;;;;;;14.88;2.28;;;;;;;7.86;100.00;100487.16;5049965;28;20051;-78
2023/03/26 09:39:20;;;;;;;10.63;2.88;;;;;;;7.95;100.00;100487.25;5045236;28;20096;-77
2023/03/26 09:42:03;;;;;;;8.63;2.47;;;;;;;7.99;100.00;100489.91;5010971;28;20541;-77
2023/03/26 09:44:51;;;;;;;12.10;2.40;;;;;;;8.04;100.00;100494.34;5047695;28;20123;-77
2023/03/26 09:47:37;;;;;;;9.80;2.25;;;;;;;8.13;100.00;100494.41;5051246;28;20045;-77
2023/03/26 09:50:32;;;;;;;14.65;2.50;;;;;;;8.14;100.00;100504.03;5053948;28;20060;-77
2023/03/26 09:53:03;;;;;;;14.68;2.80;;;;;;;8.15;100.00;100506.66;5043908;28;20059;-76
2023/03/26 09:55:41;;;;;;;6.72;2.25;;;;;;;8.09;100.00;100501.38;5025227;28;20064;-80
2023/03/26 09:58:15;;;;;;;9.32;2.58;;;;;;;7.98;100.00;100516.16;5051470;28;20048;-77
2023/03/26 10:00:51;;;;;;;12.98;2.53;;;;;;;7.99;100.00;100508.25;5063569;28;20049;-77
2023/03/26 10:03:41;;;;;;;22.33;2.97;;;;;;;8.03;100.00;100514.41;5069287;28;20458;-77
2023/03/26 10:06:37;;;;;;;13.90;2.45;;;;;;;8.16;100.00;100513.66;5063013;28;20052;-76
2023/03/26 10:09:30;;;;;;;10.23;2.58;;;;;;;8.23;100.00;100519.84;5056153;28;20503;-77
2023/03/26 10:12:19;;;;;;;9.05;2.63;;;;;;;8.12;100.00;100516.25;5024182;28;20048;-77
2023/03/26 10:15:08;;;;;;;13.18;2.58;;;;;;;8.12;100.00;100519.75;5056873;28;20044;-77
2023/03/26 10:17:45;;;;;;;16.42;2.50;;;;;;;8.10;100.00;100518.00;5049411;28;20052;-77
2023/03/26 10:20:29;;;;;;;13.38;2.42;;;;;;;8.06;100.00;100521.47;5052334;28;20056;-77
2023/03/26 10:23:18;;;;;;;10.65;2.78;;;;;;;8.05;100.00;100519.69;5062941;28;20053;-78
2023/03/26 10:25:51;;;;;;;12.07;2.20;;;;;;;8.05;100.00;100525.81;5006970;28;20520;-77
2023/03/26 10:28:46;;;;;;;8.52;2.10;;;;;;;7.98;97.81;100530.16;5066601;28;20036;-77
2023/03/26 10:31:33;;;;;;;13.10;2.55;;;;;;;7.98;100.00;100526.66;5055365;28;20045;-77
2023/03/26 10:34:21;;;;;;;9.70;2.28;;;;;;;8.02;100.00;100538.94;5040050;28;20415;-77
2023/03/26 10:37:31;;;;;;;7.53;2.20;;;;;;;8.04;100.00;100537.19;5049801;28;20041;-77
2023/03/26 10:40:18;;;;;;;18.35;3.38;;;;;;;7.98;100.00;100531.91;5049179;28;22170;-77
2023/03/26 10:42:58;;;;;;;8.20;1.90;;;;;;;8.12;100.00;100532.00;5027959;28;20668;-77
2023/03/26 10:45:59;;;;;;;11.13;3.15;;;;;;;8.24;99.59;100525.97;5063683;28;20071;-78
2023/03/26 10:48:48;;;;;;;9.43;2.30;;;;;;;8.44;99.13;100540.16;5068001;28;20041;-78
2023/03/26 10:51:21;;;;;;;7.50;1.75;;;;;;;8.43;99.35;100529.63;5054675;28;20037;-77
2023/03/26 10:53:53;;;;;;;7.88;2.20;;;;;;;8.40;99.87;100528.72;5072896;28;20051;-77
2023/03/26 10:56:46;;;;;;;8.02;1.90;;;;;;;8.38;98.11;100525.19;5038862;28;20492;-77
2023/03/26 10:59:15;;;;;;;4.65;2.13;;;;;;;8.45;100.00;100520.91;5063762;28;20505;-77
2023/03/26 11:02:23;;;;;;;10.80;2.67;;;;;;;8.48;100.00;100520.91;5062199;28;20859;-77
2023/03/26 11:05:40;;;;;;;10.00;2.75;;;;;;;8.51;99.00;100535.84;5038536;28;20514;-77
2023/03/26 11:08:21;;;;;;;12.77;2.40;;;;;;;8.48;93.02;100528.78;5031046;28;20052;-78
2023/03/26 11:11:00;;;;;;;14.13;2.97;;;;;;;8.38;98.31;100535.69;5045276;28;20048;-77
2023/03/26 11:13:50;;;;;;;10.18;1.88;;;;;;;8.38;98.57;100534.84;5011131;28;20052;-78
2023/03/26 11:16:25;;;;;;;9.80;2.75;;;;;;;8.41;98.03;100534.84;5051637;28;20049;-77
2023/03/26 11:19:20;;;;;;;8.52;2.72;;;;;;;8.45;93.63;100526.16;5039398;28;20055;-77
2023/03/26 11:21:51;;;;;;;5.50;1.83;;;;;;;8.41;95.67;100534.84;5053218;28;20044;-77
2023/03/26 11:24:46;;;;;;;12.98;2.38;;;;;;;8.47;96.22;100532.31;5073579;28;20510;-77
2023/03/26 11:27:37;;;;;;;7.90;2.17;;;;;;;8.50;89.00;100545.44;5055214;28;20049;-77
2023/03/26 11:30:39;;;;;;;12.50;1.98;;;;;;;8.47;94.53;100542.81;5033336;28;20045;-78
2023/03/26 11:33:15;;;;;;;10.02;2.30;;;;;;;8.34;89.97;100541.81;5049637;28;20045;-78
2023/03/26 11:35:50;;;;;;;6.05;2.20;;;;;;;8.23;93.93;100550.47;5059115;28;20136;-76
2023/03/26 11:38:37;;;;;;;10.95;2.20;;;;;;;8.25;96.15;100544.34;5053147;28;20049;-77
2023/03/26 11:41:30;;;;;;;12.23;3.07;;;;;;;8.44;93.56;100553.28;5051083;28;20053;-78
2023/03/26 11:44:12;;;;;;;8.55;2.10;;;;;;;8.53;96.29;100548.09;4981922;28;20044;-77
2023/03/26 11:46:44;;;;;;;10.98;2.05;;;;;;;8.64;98.41;100542.91;5059965;28;20040;-78
2023/03/26 11:49:16;;;;;;;13.00;2.17;;;;;;;8.75;97.67;100550.84;5048218;28;20056;-78
2023/03/26 11:51:46;;;;;;;11.18;2.40;;;;;;;8.78;97.33;100543.88;5024443;28;20048;-77
2023/03/26 11:54:14;;;;;;;10.02;2.33;;;;;;;8.81;97.82;100545.66;5065825;28;20041;-77
2023/03/26 11:57:00;;;;;;;10.07;2.00;;;;;;;8.78;96.76;100546.50;5042183;28;20057;-78
2023/03/26 11:59:33;;;;;;;14.82;2.35;;;;;;;8.80;97.39;100554.38;5030691;28;20375;-78
2023/03/26 12:02:23;;;;;;;12.48;1.95;;;;;;;8.74;92.95;100554.34;5073176;28;20394;-78
2023/03/26 12:04:54;;;;;;;11.43;2.08;;;;;;;8.69;93.01;100556.06;5057023;28;20048;-78
2023/03/26 12:07:28;;;;;;;8.23;2.00;;;;;;;8.67;90.88;100557.81;5048255;28;20513;-78
2023/03/26 12:09:58;;;;;;;8.15;2.00;;;;;;;8.65;89.02;100556.94;5049421;28;20492;-77
2023/03/26 12:12:47;;;;;;;8.18;2.10;;;;;;;8.53;88.16;100565.59;5027166;28;20622;-77
2023/03/26 12:15:17;;;;;;;10.48;2.42;;;;;;;8.37;88.55;100564.56;5063042;28;20056;-78
2023/03/26 12:17:46;;;;;;;;;;;;;;;8.24;80.52;100574.13;5012697;28;20047;-77
2023/03/26 12:20:34;;;;;;;9.57;2.38;;;;;;;8.24;88.35;100565.34;5053477;28;19920;-78
2023/03/26 12:23:04;;;;;;;10.07;1.80;;;;;;;8.28;88.79;100560.13;5055644;28;20048;-78